Time;durP1;ratioP1;P1;durP2;ratioP2;P2;SDS_P1;SDS_P2;PMS_P1;PMS_P2;Temp;Humidity;BMP_temperature;BMP_pressure;BME280_temperature;BME280_humidity;BME280_pressure;Samples;Min_cycle;Max_cycle;Signal;HPM_P1;HPM_P2
2023/08/22 00:00:13;;;;;;;14.70;9.95;;;;;;;21.71;100.00;97703.19;5042563;28;20045;-70
2023/08/22 00:02:39;;;;;;;12.52;9.02;;;;;;;21.72;100.00;97694.84;5047583;28;20029;-71
2023/08/22 00:05:05;;;;;;;18.20;10.35;;;;;;;21.77;100.00;97689.78;5047308;28;20071;-70
2023/08/22 00:07:30;;;;;;;14.63;10.32;;;;;;;21.79;100.00;97695.06;5037050;28;20045;-70
2023/08/22 00:09:56;;;;;;;14.40;9.70;;;;;;;21.75;100.00;97699.16;5027032;28;20049;-70
2023/08/22 00:12:22;;;;;;;12.40;9.77;;;;;;;21.80;100.00;97703.09;5010737;28;20025;-72
2023/08/22 00:14:47;;;;;;;15.40;10.05;;;;;;;21.91;100.00;97704.69;5036946;28;20117;-70
2023/08/22 00:17:13;;;;;;;12.90;9.10;;;;;;;21.86;100.00;97696.13;5025645;28;20111;-70
2023/08/22 00:19:39;;;;;;;13.85;9.98;;;;;;;21.70;100.00;97693.31;5046764;28;20025;-71
2023/08/22 00:22:05;;;;;;;14.10;9.70;;;;;;;21.58;100.00;97699.03;5033196;28;20406;-70
2023/08/22 00:24:32;;;;;;;19.60;9.90;;;;;;;21.66;100.00;97706.38;5034480;28;20021;-71
2023/08/22 00:26:58;;;;;;;14.32;10.52;;;;;;;21.69;100.00;97692.44;5027116;28;20021;-70
2023/08/22 00:29:24;;;;;;;14.35;10.43;;;;;;;21.57;100.00;97700.03;5035076;28;20032;-70
2023/08/22 00:31:51;;;;;;;13.68;10.45;;;;;;;21.55;100.00;97696.63;5046748;28;20060;-70
2023/08/22 00:34:16;;;;;;;13.18;9.77;;;;;;;21.48;100.00;97703.72;5046904;28;20492;-70
2023/08/22 00:36:42;;;;;;;14.40;9.75;;;;;;;21.56;100.00;97705.66;5032395;28;20147;-70
2023/08/22 00:39:07;;;;;;;15.52;9.93;;;;;;;21.51;100.00;97697.94;5027841;28;20044;-70
2023/08/22 00:41:33;;;;;;;16.40;9.73;;;;;;;21.48;100.00;97703.72;5046631;28;20036;-70
2023/08/22 00:43:59;;;;;;;14.32;9.90;;;;;;;21.47;100.00;97699.28;5030963;28;20405;-70
2023/08/22 00:46:28;;;;;;;13.05;10.05;;;;;;;21.47;100.00;97699.28;5028007;28;20040;-70
2023/08/22 00:48:54;;;;;;;15.23;9.68;;;;;;;21.48;100.00;97697.41;5026493;28;20034;-70
2023/08/22 00:51:20;;;;;;;18.70;10.02;;;;;;;21.38;100.00;97702.13;5027984;28;20028;-69
2023/08/22 00:53:47;;;;;;;15.63;9.65;;;;;;;21.45;100.00;97703.19;5026493;28;20036;-70
2023/08/22 00:56:12;;;;;;;13.38;9.85;;;;;;;21.47;100.00;97712.06;5044607;28;20404;-70
2023/08/22 00:58:38;;;;;;;17.63;10.00;;;;;;;21.58;100.00;97709.06;5041827;28;20029;-70
2023/08/22 01:01:03;;;;;;;17.15;9.35;;;;;;;21.60;100.00;97701.56;5015391;28;20021;-70
2023/08/22 01:03:29;;;;;;;13.95;9.88;;;;;;;21.45;100.00;97703.19;5046013;28;20032;-70
2023/08/22 01:06:20;;;;;;;12.20;9.90;;;;;;;21.25;100.00;97712.56;5040919;28;20052;-70
2023/08/22 01:08:49;;;;;;;12.02;9.88;;;;;;;21.18;100.00;97706.88;5043838;28;20037;-70
2023/08/22 01:11:23;;;;;;;16.10;10.75;;;;;;;21.00;100.00;97706.88;5026356;28;20030;-70
2023/08/22 01:13:49;;;;;;;12.63;9.95;;;;;;;20.83;100.00;97702.25;5026364;28;20413;-71
2023/08/22 01:16:15;;;;;;;16.13;10.70;;;;;;;20.81;100.00;97714.31;5009882;28;20033;-70
2023/08/22 01:18:41;;;;;;;15.82;11.55;;;;;;;20.87;100.00;97709.09;5029531;28;20045;-70
2023/08/22 01:21:07;;;;;;;14.77;10.05;;;;;;;20.90;100.00;97716.97;5026514;28;20029;-71
2023/08/22 01:23:32;;;;;;;15.63;11.27;;;;;;;20.86;100.00;97720.97;5026296;28;20026;-70
2023/08/22 01:26:00;;;;;;;16.90;10.70;;;;;;;20.92;100.00;97723.09;5026393;28;20049;-70
2023/08/22 01:28:36;;;;;;;18.38;10.57;;;;;;;20.89;100.00;97723.41;5009437;28;20086;-70
2023/08/22 01:31:22;;;;;;;13.30;9.70;;;;;;;20.99;100.00;97729.63;5034387;28;20170;-71
2023/08/22 01:33:58;;;;;;;13.88;9.90;;;;;;;20.96;100.00;97724.50;5021199;28;20035;-71
2023/08/22 01:36:25;;;;;;;17.25;11.45;;;;;;;20.95;100.00;97727.34;5045249;27;20036;-71
2023/08/22 01:38:51;;;;;;;14.48;10.65;;;;;;;20.88;100.00;97719.00;5024556;28;20463;-71
2023/08/22 01:41:17;;;;;;;16.67;10.60;;;;;;;20.84;100.00;97724.88;5034084;28;20107;-70
2023/08/22 01:43:43;;;;;;;19.58;11.27;;;;;;;20.80;100.00;97723.47;5033827;28;20108;-71
2023/08/22 01:46:09;;;;;;;14.48;11.13;;;;;;;20.77;100.00;97735.50;5021869;28;20033;-70
2023/08/22 01:48:35;;;;;;;15.27;10.75;;;;;;;20.84;100.00;97736.63;5045923;28;20081;-69
2023/08/22 01:51:00;;;;;;;14.25;10.75;;;;;;;20.74;100.00;97724.94;5042683;28;20029;-69
2023/08/22 01:53:26;;;;;;;15.45;11.02;;;;;;;20.67;100.00;97725.72;5027936;28;20461;-70
2023/08/22 01:55:52;;;;;;;16.90;11.32;;;;;;;20.68;100.00;97728.28;5042269;28;20017;-70
2023/08/22 01:58:17;;;;;;;15.85;10.68;;;;;;;20.74;100.00;97729.53;5025952;28;20063;-70
2023/08/22 02:00:43;;;;;;;18.38;10.73;;;;;;;20.89;100.00;97736.13;5025652;28;20389;-70
2023/08/22 02:03:08;;;;;;;19.33;10.48;;;;;;;20.83;100.00;97728.59;5035167;28;20025;-71
2023/08/22 02:05:34;;;;;;;20.73;12.32;;;;;;;20.74;100.00;97735.81;5025564;28;20026;-71
2023/08/22 02:08:04;;;;;;;17.58;10.32;;;;;;;20.69;100.00;97727.28;5028905;28;20029;-71
2023/08/22 02:10:29;;;;;;;18.05;10.98;;;;;;;20.70;100.00;97725.41;5029509;28;20028;-70
2023/08/22 02:12:55;;;;;;;23.25;11.73;;;;;;;20.51;100.00;97720.97;5012709;28;20033;-70
2023/08/22 02:15:21;;;;;;;20.77;11.70;;;;;;;20.37;100.00;97730.47;5029283;28;20022;-70
2023/08/22 02:17:47;;;;;;;16.27;10.10;;;;;;;20.36;100.00;97730.63;5030047;28;20124;-72
2023/08/22 02:20:13;;;;;;;18.95;10.88;;;;;;;20.31;100.00;97722.06;5029124;28;20061;-70
2023/08/22 02:22:42;;;;;;;21.73;10.68;;;;;;;20.31;100.00;97733.78;5044169;28;20059;-70
2023/08/22 02:25:08;;;;;;;15.65;10.73;;;;;;;20.34;100.00;97733.50;5030190;28;20041;-70
2023/08/22 02:27:34;;;;;;;34.13;11.45;;;;;;;20.30;100.00;97736.66;5012375;28;20025;-70
2023/08/22 02:30:00;;;;;;;24.88;11.65;;;;;;;20.34;100.00;97741.63;5028744;28;20404;-71
2023/08/22 02:32:25;;;;;;;17.45;10.95;;;;;;;20.35;100.00;97740.66;5031350;28;20041;-71
2023/08/22 02:34:51;;;;;;;15.75;10.82;;;;;;;20.37;100.00;97737.75;5029960;28;20029;-70
2023/08/22 02:37:16;;;;;;;20.95;11.50;;;;;;;20.25;100.00;97745.22;5012170;28;20058;-71
2023/08/22 02:39:42;;;;;;;14.48;10.95;;;;;;;20.31;100.00;97741.94;5038637;28;20025;-70
2023/08/22 02:42:07;;;;;;;21.92;11.85;;;;;;;20.27;100.00;97740.53;5048303;28;20581;-70
2023/08/22 02:44:33;;;;;;;19.42;12.52;;;;;;;20.26;100.00;97746.13;5036160;28;20146;-70
2023/08/22 02:46:58;;;;;;;15.32;11.30;;;;;;;20.21;100.00;97746.53;5040611;28;20018;-70
2023/08/22 02:49:24;;;;;;;18.17;11.98;;;;;;;20.14;100.00;97758.16;5029987;28;20028;-70
2023/08/22 02:51:49;;;;;;;23.83;12.10;;;;;;;20.06;100.00;97755.34;5029889;28;20014;-71
2023/08/22 02:54:15;;;;;;;20.85;12.18;;;;;;;20.17;100.00;97755.13;5031060;28;20389;-70
2023/08/22 02:56:40;;;;;;;19.30;12.48;;;;;;;20.30;100.00;97747.53;5048630;28;20101;-70
2023/08/22 02:59:06;;;;;;;23.33;11.98;;;;;;;20.23;100.00;97746.38;5049591;28;20033;-71
2023/08/22 03:01:31;;;;;;;28.77;12.70;;;;;;;20.21;100.00;97740.25;5048185;28;20093;-70
2023/08/22 03:03:57;;;;;;;19.30;12.38;;;;;;;20.16;100.00;97746.13;5042597;28;20031;-70
2023/08/22 03:06:22;;;;;;;19.23;11.65;;;;;;;20.13;100.00;97746.44;5031107;28;20036;-70
2023/08/22 03:08:48;;;;;;;21.48;13.02;;;;;;;19.97;100.00;97746.19;5041801;28;20032;-70
2023/08/22 03:11:14;;;;;;;21.15;13.13;;;;;;;20.02;100.00;97747.50;5034117;28;20021;-69
2023/08/22 03:13:40;;;;;;;23.45;14.10;;;;;;;19.98;100.00;97746.06;5035893;28;20098;-70
2023/08/22 03:16:06;;;;;;;18.40;12.48;;;;;;;19.98;100.00;97743.34;5028044;28;20029;-70
2023/08/22 03:18:31;;;;;;;27.05;12.75;;;;;;;20.04;100.00;97755.47;5026942;28;20104;-70
2023/08/22 03:20:57;;;;;;;17.70;12.90;;;;;;;19.97;100.00;97760.63;5011626;28;20101;-70
2023/08/22 03:23:23;;;;;;;17.63;12.43;;;;;;;20.04;100.00;97760.91;5030003;28;20125;-71
2023/08/22 03:26:10;;;;;;;19.75;12.02;;;;;;;20.14;100.00;97764.44;5028221;28;20025;-70
2023/08/22 03:28:36;;;;;;;19.38;12.13;;;;;;;20.15;100.00;97768.03;5040438;28;20025;-70
2023/08/22 03:31:04;;;;;;;21.83;12.70;;;;;;;20.10;100.00;97770.31;5030910;28;20113;-70
2023/08/22 03:33:30;;;;;;;33.90;13.23;;;;;;;20.19;100.00;97772.13;5048967;28;20029;-70
2023/08/22 03:35:56;;;;;;;28.77;13.20;;;;;;;20.18;100.00;97773.16;5046362;28;20017;-70
2023/08/22 03:38:22;;;;;;;22.00;12.23;;;;;;;20.20;100.00;97776.56;5028972;28;20090;-70
2023/08/22 03:40:48;;;;;;;21.13;12.25;;;;;;;20.21;100.00;97776.41;5032344;28;20025;-70
2023/08/22 03:43:16;;;;;;;25.55;11.98;;;;;;;20.22;100.00;97777.28;5027592;28;20025;-70
2023/08/22 03:45:44;;;;;;;22.70;12.32;;;;;;;20.21;100.00;97773.69;5039890;28;20412;-70
2023/08/22 03:48:10;;;;;;;21.73;11.95;;;;;;;20.32;100.00;97775.41;5048772;28;20025;-70
2023/08/22 03:50:38;;;;;;;42.45;13.43;;;;;;;20.32;100.00;97779.00;5027557;28;20029;-69
2023/08/22 03:53:03;;;;;;;76.70;22.60;;;;;;;20.44;100.00;97782.34;5016580;28;20028;-71
2023/08/22 03:55:29;;;;;;;28.38;14.25;;;;;;;20.50;100.00;97776.31;5048351;28;20029;-73
2023/08/22 03:57:56;;;;;;;71.97;16.60;;;;;;;20.52;100.00;97780.59;5045202;28;20093;-71
2023/08/22 04:00:21;;;;;;;39.38;14.32;;;;;;;20.46;100.00;97778.47;5030760;27;20060;-71
2023/08/22 04:02:47;;;;;;;18.83;12.02;;;;;;;20.63;100.00;97782.25;5013654;28;20503;-71
2023/08/22 04:05:12;;;;;;;22.98;11.38;;;;;;;20.60;100.00;97777.13;5033749;28;20075;-69
2023/08/22 04:07:38;;;;;;;17.38;11.40;;;;;;;20.77;100.00;97779.03;5027269;28;20052;-72
2023/08/22 04:10:04;;;;;;;26.73;12.98;;;;;;;20.71;100.00;97773.34;5041657;28;20119;-69
2023/08/22 04:12:29;;;;;;;20.15;11.00;;;;;;;20.93;100.00;97787.38;5030096;28;20025;-68
2023/08/22 04:14:55;;;;;;;24.90;12.07;;;;;;;20.95;100.00;97782.63;5030704;28;20021;-74
2023/08/22 04:17:20;;;;;;;18.90;12.55;;;;;;;21.02;100.00;97794.59;5038546;28;20028;-72
2023/08/22 04:19:46;;;;;;;25.48;12.57;;;;;;;21.00;100.00;97785.75;5030391;28;20025;-70
2023/08/22 04:22:11;;;;;;;53.78;13.25;;;;;;;20.92;100.00;97787.50;5046164;28;20029;-76
2023/08/22 04:24:37;;;;;;;35.08;14.23;;;;;;;21.04;100.00;97787.13;5025019;28;20026;-69
2023/08/22 04:27:03;;;;;;;31.58;14.02;;;;;;;21.08;100.00;97794.00;5024471;28;20044;-70
2023/08/22 04:29:28;;;;;;;33.45;16.17;;;;;;;21.23;100.00;97796.19;5040139;28;20025;-72
2023/08/22 04:31:56;;;;;;;62.83;18.85;;;;;;;21.29;100.00;97803.72;5043981;28;20144;-72
2023/08/22 04:34:22;;;;;;;36.90;14.38;;;;;;;21.27;100.00;97800.31;5038354;28;20172;-71
2023/08/22 04:36:47;;;;;;;30.98;14.15;;;;;;;21.30;100.00;97800.88;5028716;28;20029;-72
2023/08/22 04:39:13;;;;;;;22.27;12.05;;;;;;;21.34;100.00;97806.88;5036049;28;20033;-71
2023/08/22 04:41:38;;;;;;;41.20;12.68;;;;;;;21.49;100.00;97810.75;5045021;28;20033;-71
2023/08/22 04:44:04;;;;;;;65.75;14.30;;;;;;;21.67;100.00;97805.28;5043739;28;20147;-72
2023/08/22 04:46:29;;;;;;;24.83;12.43;;;;;;;21.81;100.00;97802.00;5043680;28;20029;-71
2023/08/22 04:48:55;;;;;;;41.00;13.30;;;;;;;21.92;100.00;97808.06;5043458;28;20485;-72
2023/08/22 04:51:20;;;;;;;27.27;12.85;;;;;;;21.95;100.00;97805.03;5043682;28;20025;-71
2023/08/22 04:53:46;;;;;;;23.58;12.68;;;;;;;21.92;100.00;97804.50;5026780;28;20480;-74
2023/08/22 04:56:12;;;;;;;40.70;13.63;;;;;;;22.01;100.00;97804.38;5038013;28;20037;-71
2023/08/22 04:58:37;;;;;;;47.17;15.32;;;;;;;22.03;100.00;97807.81;5025153;28;20029;-71
2023/08/22 05:01:03;;;;;;;46.63;15.55;;;;;;;22.02;100.00;97806.13;5023469;28;20034;-71
2023/08/22 05:03:28;;;;;;;39.85;14.43;;;;;;;21.99;100.00;97811.88;5023695;28;20106;-71
2023/08/22 05:05:54;;;;;;;21.00;12.30;;;;;;;22.22;100.00;97809.47;5023775;28;20117;-71
2023/08/22 05:08:19;;;;;;;27.85;12.35;;;;;;;22.30;100.00;97809.53;5025047;28;20056;-71
2023/08/22 05:10:45;;;;;;;25.08;12.27;;;;;;;22.36;100.00;97806.16;5024933;28;20056;-70
2023/08/22 05:13:10;;;;;;;28.80;12.00;;;;;;;22.41;100.00;97811.09;5006802;28;20098;-71
2023/08/22 05:15:36;;;;;;;25.98;12.90;;;;;;;22.39;100.00;97807.69;5003872;28;20361;-71
2023/08/22 05:18:01;;;;;;;28.42;12.77;;;;;;;22.49;100.00;97808.41;5024556;28;20480;-71
2023/08/22 05:20:27;;;;;;;46.80;13.55;;;;;;;22.62;100.00;97804.22;5023435;28;20029;-71
2023/08/22 05:22:52;;;;;;;31.70;12.15;;;;;;;22.76;100.00;97797.34;5023428;28;20060;-72
2023/08/22 05:25:18;;;;;;;20.05;12.13;;;;;;;22.73;100.00;97792.22;5028576;28;20507;-72
2023/08/22 05:27:43;;;;;;;48.90;13.00;;;;;;;22.90;100.00;97791.22;5043377;28;20035;-72
2023/08/22 05:30:09;;;;;;;22.58;12.57;;;;;;;22.82;100.00;97791.22;5044131;28;20040;-72
2023/08/22 05:32:35;;;;;;;25.48;13.02;;;;;;;23.06;100.00;97794.00;5026626;28;20101;-71
2023/08/22 05:35:01;;;;;;;27.15;13.40;;;;;;;23.33;100.00;97798.31;5043251;28;20081;-71
2023/08/22 05:37:26;;;;;;;23.30;11.57;;;;;;;23.59;100.00;97803.69;5042754;28;20039;-72
2023/08/22 05:39:52;;;;;;;23.85;11.80;;;;;;;24.27;100.00;97802.28;5043249;28;20029;-71
2023/08/22 05:42:17;;;;;;;31.60;11.90;;;;;;;25.72;100.00;97805.34;5043406;28;20025;-71
2023/08/22 05:44:43;;;;;;;30.73;11.15;;;;;;;27.19;100.00;97793.53;5043034;28;20048;-71
2023/08/22 05:47:09;;;;;;;19.63;11.57;;;;;;;27.88;100.00;97786.44;5026260;28;20041;-72
2023/08/22 05:49:34;;;;;;;19.08;11.82;;;;;;;28.83;100.00;97788.66;5042951;28;20136;-71
2023/08/22 05:52:04;;;;;;;24.08;10.32;;;;;;;29.71;99.82;97780.31;5042703;28;20491;-72
2023/08/22 05:54:31;;;;;;;24.27;10.13;;;;;;;30.22;94.21;97774.19;5042759;28;20109;-72
2023/08/22 05:56:56;;;;;;;25.17;10.15;;;;;;;30.55;91.04;97770.34;5042882;28;20024;-71
2023/08/22 05:59:25;;;;;;;21.85;11.00;;;;;;;30.99;86.45;97766.88;5025973;28;20493;-72
2023/08/22 06:01:50;;;;;;;21.67;10.07;;;;;;;31.49;82.80;97765.19;5042528;28;20477;-72
2023/08/22 06:04:17;;;;;;;47.35;12.07;;;;;;;31.98;79.88;97756.09;5042694;28;20064;-72
2023/08/22 06:06:44;;;;;;;31.98;10.90;;;;;;;32.61;74.82;97761.53;5026337;28;20488;-72
2023/08/22 06:09:10;;;;;;;33.40;10.55;;;;;;;32.72;71.72;97766.31;5042901;28;20047;-72
2023/08/22 06:11:35;;;;;;;16.55;9.48;;;;;;;33.03;68.80;97770.88;5042721;28;20033;-72
2023/08/22 06:14:01;;;;;;;20.85;10.25;;;;;;;33.34;67.02;97759.63;5026332;28;20156;-70
2023/08/22 06:16:26;;;;;;;18.30;10.52;;;;;;;33.19;66.36;97759.19;5023869;28;20086;-71
2023/08/22 06:18:52;;;;;;;30.80;9.75;;;;;;;33.49;64.80;97762.84;5022768;28;20496;-71
2023/08/22 06:21:17;;;;;;;18.38;9.52;;;;;;;33.91;62.95;97758.16;5022549;28;20084;-70
2023/08/22 06:23:43;;;;;;;20.60;9.38;;;;;;;34.59;59.29;97752.97;5022700;28;20091;-70
2023/08/22 06:26:13;;;;;;;19.13;9.20;;;;;;;34.95;57.15;97756.59;5038977;28;20066;-71
2023/08/22 06:28:38;;;;;;;15.93;10.05;;;;;;;34.81;56.23;97750.44;5043668;28;20059;-70
2023/08/22 06:31:05;;;;;;;18.20;9.05;;;;;;;35.33;55.91;97751.28;5042396;28;20763;-72
2023/08/22 06:33:31;;;;;;;17.30;8.85;;;;;;;35.73;53.81;97745.72;5042397;28;20021;-71
2023/08/22 06:35:56;;;;;;;15.93;9.32;;;;;;;36.07;52.24;97746.63;5026048;28;20024;-71
2023/08/22 06:38:22;;;;;;;20.42;9.23;;;;;;;36.24;51.52;97739.94;5025648;28;20086;-71
2023/08/22 06:40:48;;;;;;;53.33;11.00;;;;;;;36.63;50.71;97746.47;5043433;28;20028;-71
2023/08/22 06:43:14;;;;;;;28.30;10.85;;;;;;;36.91;48.99;97737.97;5042104;28;20090;-71
2023/08/22 06:45:40;;;;;;;19.50;10.15;;;;;;;37.41;47.73;97736.91;5025842;28;20029;-71
2023/08/22 06:48:06;;;;;;;16.88;10.07;;;;;;;37.90;46.28;97743.41;5042132;28;20505;-71
2023/08/22 06:50:31;;;;;;;14.02;9.35;;;;;;;37.69;46.20;97741.47;5042188;28;20085;-72
2023/08/22 06:52:57;;;;;;;21.02;9.48;;;;;;;38.08;44.88;97751.41;5041056;28;20017;-70
2023/08/22 06:55:22;;;;;;;16.80;10.30;;;;;;;37.29;45.85;97733.44;5046742;28;20464;-71
2023/08/22 06:57:48;;;;;;;14.73;9.57;;;;;;;37.85;45.17;97738.56;5045650;28;20106;-71
2023/08/22 07:00:15;;;;;;;13.88;9.32;;;;;;;36.75;47.40;97738.84;5039017;28;20124;-71
2023/08/22 07:02:45;;;;;;;14.90;9.80;;;;;;;35.56;51.41;97751.22;5009067;28;20094;-71
2023/08/22 07:05:11;;;;;;;16.50;9.00;;;;;;;36.67;49.60;97746.81;5025419;28;20103;-70
2023/08/22 07:07:37;;;;;;;13.68;9.25;;;;;;;37.57;46.73;97741.63;5025387;28;20025;-71
2023/08/22 07:10:08;;;;;;;16.92;9.50;;;;;;;38.21;45.30;97742.56;5025406;28;20029;-71
2023/08/22 07:12:34;;;;;;;14.23;8.88;;;;;;;38.80;43.63;97746.13;5008742;28;20033;-71
2023/08/22 07:15:00;;;;;;;14.65;8.40;;;;;;;37.38;46.26;97737.44;5025575;28;20086;-70
2023/08/22 07:17:26;;;;;;;12.00;8.20;;;;;;;37.90;45.27;97740.63;5025559;28;20504;-71
2023/08/22 07:19:51;;;;;;;15.30;8.48;;;;;;;37.76;45.06;97745.75;5009129;28;20452;-71
2023/08/22 07:22:17;;;;;;;10.68;8.73;;;;;;;37.70;45.07;97741.22;5026640;28;20041;-71
2023/08/22 07:24:42;;;;;;;12.13;7.70;;;;;;;38.64;42.82;97735.09;5008406;28;20025;-71
2023/08/22 07:27:11;;;;;;;10.35;7.97;;;;;;;38.30;42.74;97734.53;5025197;28;20033;-72
2023/08/22 07:29:37;;;;;;;9.15;8.13;;;;;;;38.78;42.38;97725.09;5008623;28;20432;-72
2023/08/22 07:32:03;;;;;;;27.13;9.07;;;;;;;39.10;41.66;97725.03;5025053;28;20042;-72
2023/08/22 07:34:28;;;;;;;15.57;9.15;;;;;;;39.76;40.89;97728.94;5025305;28;20098;-70
2023/08/22 07:36:54;;;;;;;17.13;8.75;;;;;;;39.94;40.09;97723.66;5026182;28;20030;-71
2023/08/22 07:39:20;;;;;;;11.38;7.82;;;;;;;40.56;38.90;97729.03;5008461;28;20060;-71
2023/08/22 07:41:46;;;;;;;8.98;8.00;;;;;;;40.89;38.55;97715.47;5025132;28;20042;-71
2023/08/22 07:44:12;;;;;;;13.38;8.60;;;;;;;41.70;37.54;97726.44;5026391;28;20059;-71
2023/08/22 07:46:38;;;;;;;14.55;8.57;;;;;;;41.90;37.08;97717.91;5025999;28;20524;-71
2023/08/22 07:49:03;;;;;;;11.40;9.73;;;;;;;42.37;36.02;97718.09;5024928;28;20028;-71
2023/08/22 07:51:30;;;;;;;33.90;9.65;;;;;;;42.12;36.15;97715.47;5026262;28;20021;-72
2023/08/22 07:53:56;;;;;;;47.53;10.88;;;;;;;42.90;35.34;97709.72;5024631;28;20034;-71
2023/08/22 07:56:21;;;;;;;12.30;9.00;;;;;;;42.55;35.30;97710.91;5026299;28;20025;-71
2023/08/22 07:58:47;;;;;;;12.70;8.30;;;;;;;42.10;36.25;97707.34;5024677;28;20155;-71
2023/08/22 08:01:13;;;;;;;14.40;8.55;;;;;;;42.78;35.45;97706.47;5024609;28;20492;-71
2023/08/22 08:03:39;;;;;;;17.80;8.73;;;;;;;42.11;36.08;97703.41;5008442;28;20030;-72
2023/08/22 08:06:05;;;;;;;19.00;7.88;;;;;;;42.75;35.19;97705.09;5044481;28;20047;-71
2023/08/22 08:08:30;;;;;;;11.75;8.65;;;;;;;43.08;34.76;97700.53;5027827;28;20523;-71
2023/08/22 08:10:56;;;;;;;10.30;8.27;;;;;;;43.47;33.87;97697.53;5027690;28;20061;-71
2023/08/22 08:13:21;;;;;;;10.57;8.57;;;;;;;43.62;33.63;97692.53;5044310;28;20488;-71
2023/08/22 08:15:47;;;;;;;15.88;9.23;;;;;;;41.94;35.24;97690.88;5043162;28;20025;-71
2023/08/22 08:18:14;;;;;;;11.05;8.90;;;;;;;41.15;37.10;97699.44;5027510;28;20060;-70
2023/08/22 08:20:40;;;;;;;14.27;9.23;;;;;;;41.35;37.21;97697.38;5044303;28;20068;-70
2023/08/22 08:23:06;;;;;;;12.25;8.98;;;;;;;42.04;36.06;97699.22;5045252;28;20416;-70
2023/08/22 08:25:31;;;;;;;11.32;7.93;;;;;;;41.55;36.32;97693.63;5029193;28;20108;-70
2023/08/22 08:27:58;;;;;;;12.73;8.60;;;;;;;41.58;36.77;97695.88;5026286;28;20477;-70
2023/08/22 08:30:23;;;;;;;11.60;7.78;;;;;;;41.80;36.50;97696.31;5026875;28;20095;-70
2023/08/22 08:32:49;;;;;;;9.70;8.15;;;;;;;40.37;38.57;97699.00;5010513;28;20025;-71
2023/08/22 08:35:14;;;;;;;8.73;7.68;;;;;;;38.31;41.91;97697.91;5026803;28;20053;-72
2023/08/22 08:37:40;;;;;;;11.98;8.13;;;;;;;39.39;41.07;97698.28;5026116;28;20021;-72
2023/08/22 08:40:08;;;;;;;14.07;7.82;;;;;;;40.59;39.42;97702.38;5028150;28;20494;-72
2023/08/22 08:42:37;;;;;;;11.10;7.88;;;;;;;41.36;38.03;97692.63;5027020;28;20026;-71
2023/08/22 08:45:04;;;;;;;13.63;8.40;;;;;;;40.41;39.68;97698.16;5010178;28;20136;-71
2023/08/22 08:47:32;;;;;;;10.77;7.78;;;;;;;41.79;37.21;97694.63;5026851;28;20029;-70
2023/08/22 08:49:58;;;;;;;8.48;7.68;;;;;;;40.41;38.96;97694.53;5010019;28;20033;-70
2023/08/22 08:52:23;;;;;;;9.88;7.57;;;;;;;40.89;38.46;97693.88;5026651;28;20118;-71
2023/08/22 08:54:49;;;;;;;14.18;7.80;;;;;;;40.74;38.55;97688.31;5026540;28;20057;-71
2023/08/22 08:57:15;;;;;;;22.80;8.40;;;;;;;41.81;37.04;97692.38;5010024;28;20118;-70
2023/08/22 08:59:41;;;;;;;11.45;7.60;;;;;;;42.82;35.75;97685.88;5026659;28;20029;-71
2023/08/22 09:02:13;;;;;;;18.52;7.40;;;;;;;43.81;34.34;97678.41;5026459;28;20530;-72
2023/08/22 09:04:39;;;;;;;10.00;7.15;;;;;;;42.26;35.82;97681.91;5010363;28;20029;-71
2023/08/22 09:07:07;;;;;;;15.23;7.70;;;;;;;42.59;35.10;97675.44;5026775;28;20025;-71
2023/08/22 09:09:35;;;;;;;9.68;7.20;;;;;;;41.83;35.65;97667.63;5009997;28;20084;-72
2023/08/22 09:12:04;;;;;;;23.23;7.72;;;;;;;42.58;35.06;97670.94;5026484;28;20078;-71
2023/08/22 09:14:30;;;;;;;11.35;7.13;;;;;;;43.69;33.40;97661.94;5009859;28;20452;-74
2023/08/22 09:16:59;;;;;;;9.13;7.20;;;;;;;44.36;33.02;97671.06;5025425;28;20022;-73
2023/08/22 09:19:25;;;;;;;14.95;7.30;;;;;;;44.61;32.41;97662.13;5026108;28;20034;-71
2023/08/22 09:21:57;;;;;;;13.02;7.32;;;;;;;45.18;30.97;97659.88;5027285;28;20094;-72
2023/08/22 09:24:24;;;;;;;9.13;6.50;;;;;;;46.08;28.72;97651.34;5009570;28;20093;-71
2023/08/22 09:26:50;;;;;;;13.68;6.70;;;;;;;45.39;29.40;97649.00;5026162;28;20089;-71
2023/08/22 09:29:16;;;;;;;12.40;7.13;;;;;;;44.54;29.96;97638.28;5025876;28;20098;-70
2023/08/22 09:31:41;;;;;;;7.63;6.28;;;;;;;46.05;29.19;97643.50;5027149;28;20045;-71
2023/08/22 09:34:08;;;;;;;13.77;7.30;;;;;;;43.27;32.37;97633.78;5017805;28;20034;-74
2023/08/22 09:36:33;;;;;;;15.32;7.43;;;;;;;44.57;31.19;97643.31;5026123;28;20032;-70
2023/08/22 09:38:59;;;;;;;10.68;7.07;;;;;;;43.56;31.50;97639.31;5009560;28;20029;-72
2023/08/22 09:41:26;;;;;;;11.10;7.00;;;;;;;44.51;30.83;97641.69;5026549;28;20404;-72
2023/08/22 09:43:54;;;;;;;11.35;6.60;;;;;;;45.65;29.24;97633.13;5009403;28;20492;-72
2023/08/22 09:46:21;;;;;;;6.97;6.22;;;;;;;45.52;29.44;97632.00;5009514;28;20120;-72
2023/08/22 09:48:48;;;;;;;7.78;6.07;;;;;;;45.75;29.36;97638.53;5009514;28;20477;-72
2023/08/22 09:51:18;;;;;;;8.25;6.95;;;;;;;45.44;29.72;97626.28;5025962;28;20033;-71
2023/08/22 09:53:55;;;;;;;15.00;7.00;;;;;;;46.42;28.74;97622.44;5031751;28;20028;-70
2023/08/22 09:56:23;;;;;;;6.90;6.20;;;;;;;44.66;29.99;97614.03;5030673;28;20064;-71
2023/08/22 09:58:49;;;;;;;8.30;6.28;;;;;;;44.71;30.25;97611.09;5025616;28;20028;-71
2023/08/22 10:01:16;;;;;;;11.20;6.43;;;;;;;45.57;29.73;97617.72;5025862;28;20030;-71
2023/08/22 10:03:43;;;;;;;8.00;5.57;;;;;;;47.26;27.56;97606.13;5025803;28;20477;-72
2023/08/22 10:06:11;;;;;;;8.52;6.00;;;;;;;45.76;28.24;97598.63;5026030;28;20417;-69
2023/08/22 10:08:37;;;;;;;8.57;6.00;;;;;;;46.72;27.64;97586.75;5009179;28;20025;-70
2023/08/22 10:11:04;;;;;;;6.75;6.00;;;;;;;47.00;27.10;97599.56;5025775;28;20165;-70
2023/08/22 10:13:30;;;;;;;9.80;6.43;;;;;;;46.96;26.64;97584.38;5025542;28;20022;-70
2023/08/22 10:15:56;;;;;;;10.38;6.35;;;;;;;46.81;27.17;97587.66;5025501;28;20029;-71
2023/08/22 10:18:24;;;;;;;9.45;6.80;;;;;;;47.72;25.97;97582.00;5009136;28;20063;-71
2023/08/22 10:20:49;;;;;;;16.38;7.55;;;;;;;47.96;26.39;97590.03;5025394;28;20564;-71
2023/08/22 10:23:15;;;;;;;12.90;6.35;;;;;;;48.79;25.80;97583.66;5025372;28;20072;-70
2023/08/22 10:25:48;;;;;;;9.77;6.20;;;;;;;47.47;26.44;97585.66;5025546;28;20025;-72
2023/08/22 10:28:14;;;;;;;9.45;6.63;;;;;;;47.86;26.88;97577.00;5011040;28;20532;-71
2023/08/22 10:31:02;;;;;;;8.02;7.20;;;;;;;46.94;27.07;97571.69;5028849;28;20045;-72
2023/08/22 10:33:28;;;;;;;10.48;6.18;;;;;;;48.04;25.34;97561.63;5030073;28;20101;-71
2023/08/22 10:36:13;;;;;;;12.30;7.20;;;;;;;48.59;24.86;97567.34;5028835;28;20528;-71
2023/08/22 10:38:57;;;;;;;10.80;5.88;;;;;;;47.24;25.59;97554.59;5030320;28;20488;-71
2023/08/22 10:41:24;;;;;;;13.82;5.88;;;;;;;48.07;25.01;97560.97;5030157;28;20030;-71
2023/08/22 10:43:54;;;;;;;11.93;5.70;;;;;;;48.65;25.37;97553.78;5011912;28;20052;-71
2023/08/22 10:46:19;;;;;;;19.92;6.05;;;;;;;48.27;24.42;97565.94;5028944;28;20021;-71
2023/08/22 10:48:45;;;;;;;9.00;5.32;;;;;;;48.90;23.57;97561.34;5012479;28;20465;-71
2023/08/22 10:51:11;;;;;;;13.32;5.63;;;;;;;47.40;25.02;97551.28;5048450;28;20044;-71
2023/08/22 10:53:47;;;;;;;13.20;6.22;;;;;;;47.24;25.68;97548.09;5048295;28;20069;-71
2023/08/22 10:56:22;;;;;;;11.25;5.95;;;;;;;47.59;25.18;97540.47;5034014;28;20062;-71
2023/08/22 10:58:59;;;;;;;19.23;6.65;;;;;;;47.24;25.51;97545.25;5033556;28;20029;-83
2023/08/22 11:01:24;;;;;;;16.83;5.90;;;;;;;47.98;24.66;97545.13;5045226;28;20060;-83
2023/08/22 11:03:51;;;;;;;7.78;5.95;;;;;;;48.26;24.93;97549.25;5031414;28;20061;-83
2023/08/22 11:06:18;;;;;;;9.35;5.95;;;;;;;45.25;26.90;97541.59;5012371;28;20037;-82
2023/08/22 11:08:44;;;;;;;10.13;5.88;;;;;;;42.14;30.42;97534.03;5037523;28;20045;-82
2023/08/22 11:11:15;;;;;;;21.23;6.55;;;;;;;42.52;30.59;97536.97;5042413;28;20029;-81
2023/08/22 11:13:42;;;;;;;14.27;6.30;;;;;;;43.75;29.48;97538.59;5028316;28;20081;-82